Time;durP1;ratioP1;P1;durP2;ratioP2;P2;SDS_P1;SDS_P2;PMS_P1;PMS_P2;Temp;Humidity;BMP_temperature;BMP_pressure;BME280_temperature;BME280_humidity;BME280_pressure;Samples;Min_cycle;Max_cycle;Signal;HPM_P1;HPM_P2
2022/09/05 00:01:36;;;;;;;;;;;;;;;19.77;95.51;101884.47;4917602;29;20147;-62
2022/09/05 00:04:11;;;;;;;;;;;;;;;19.78;94.49;101884.31;4920014;28;19976;-62
2022/09/05 00:06:55;;;;;;;;;;;;;;;19.77;96.57;101887.97;4926519;29;19934;-60
2022/09/05 00:09:39;;;;;;;;;;;;;;;19.75;96.17;101882.00;4920461;28;19937;-62
2022/09/05 00:12:08;;;;;;;;;;;;;;;19.71;96.25;101888.66;4926493;29;19938;-62
2022/09/05 00:14:40;;;;;;;;;;;;;;;19.66;97.60;101878.56;4914701;28;19927;-61
2022/09/05 00:17:45;;;;;;;;;;;;;;;19.66;97.54;101886.56;4927104;29;20367;-62
2022/09/05 00:20:47;;;;;;;;;;;;;;;19.68;96.66;101881.03;4919330;28;19931;-61
2022/09/05 00:23:53;;;;;;;;;;;;;;;19.69;96.69;101875.53;4926927;29;19935;-62
2022/09/05 00:26:51;;;;;;;;;;;;;;;19.62;99.09;101877.28;4933914;28;19933;-61
2022/09/05 00:29:41;;;;;;;;;;;;;;;19.61;98.71;101872.94;4948758;28;19934;-62
2022/09/05 00:32:27;;;;;;;;;;;;;;;19.60;97.09;101881.94;4940349;28;19941;-61
2022/09/05 00:35:07;;;;;;;;;;;;;;;19.59;97.48;101876.81;4953984;28;19930;-62
2022/09/05 00:37:44;;;;;;;;;;;;;;;19.58;97.82;101881.28;4943769;28;19930;-61
2022/09/05 00:40:32;;;;;;;;;;;;;;;19.56;97.37;101886.81;4950357;28;19956;-60
2022/09/05 00:43:00;;;;;;;;;;;;;;;19.56;96.25;101878.81;4940360;28;20713;-62
2022/09/05 00:45:49;;;;;;;;;;;;;;;19.54;97.98;101874.66;4949143;28;19953;-62
2022/09/05 00:48:24;;;;;;;;;;;;;;;19.50;97.80;101868.91;4946414;28;19937;-63
2022/09/05 00:50:59;;;;;;;;;;;;;;;19.42;99.91;101873.44;4954852;28;19930;-62
2022/09/05 00:53:39;;;;;;;;;;;;;;;19.40;99.82;101862.97;4958212;28;19949;-62
2022/09/05 00:56:05;;;;;;;;;;;;;;;19.32;100.00;101869.19;4946292;28;19932;-62
2022/09/05 00:58:45;;;;;;;;;;;;;;;19.33;98.39;101872.72;4953471;28;19940;-61
2022/09/05 01:01:29;;;;;;;;;;;;;;;19.31;99.17;101875.53;4947847;28;19934;-62
2022/09/05 01:04:19;;;;;;;;;;;;;;;19.29;99.60;101866.91;4955290;28;20295;-62
2022/09/05 01:07:04;;;;;;;;;;;;;;;19.30;98.69;101870.38;4949311;28;20499;-62
2022/09/05 01:09:43;;;;;;;;;;;;;;;19.25;100.00;101864.75;4948035;28;19933;-61
2022/09/05 01:12:28;;;;;;;;;;;;;;;19.18;100.00;101869.97;4947623;28;19926;-62
2022/09/05 01:15:17;;;;;;;;;;;;;;;19.17;100.00;101868.34;4956584;28;20298;-61
2022/09/05 01:17:48;;;;;;;;;;;;;;;19.14;100.00;101880.13;4944409;28;19941;-61
2022/09/05 01:20:27;;;;;;;;;;;;;;;19.08;100.00;101880.84;4959191;28;19934;-62
2022/09/05 01:22:57;;;;;;;;;;;;;;;19.06;100.00;101877.53;4934867;28;19934;-62
2022/09/05 01:25:25;;;;;;;;;;;;;;;19.05;100.00;101881.22;4949481;28;19949;-63
2022/09/05 01:27:57;;;;;;;;;;;;;;;19.03;100.00;101877.88;4949217;28;19941;-61
2022/09/05 01:30:49;;;;;;;;;;;;;;;19.00;100.00;101880.09;4954345;28;19942;-60
2022/09/05 01:33:16;;;;;;;;;;;;;;;18.97;100.00;101878.59;4957004;28;19927;-60
2022/09/05 01:35:45;;;;;;;;;;;;;;;18.94;100.00;101879.78;4940280;28;19941;-62
2022/09/05 01:38:43;;;;;;;;;;;;;;;18.86;100.00;101879.84;4954298;28;20039;-62
2022/09/05 01:41:36;;;;;;;;;;;;;;;18.86;100.00;101877.19;4950575;28;20156;-62
2022/09/05 01:44:21;;;;;;;;;;;;;;;18.82;100.00;101873.22;4953572;28;19930;-61
2022/09/05 01:47:06;;;;;;;;;;;;;;;18.77;100.00;101878.19;4954640;28;19930;-61
2022/09/05 01:49:53;;;;;;;;;;;;;;;18.74;100.00;101876.72;4944747;28;20414;-61
2022/09/05 01:52:32;;;;;;;;;;;;;;;18.75;100.00;101874.88;4940206;28;19927;-62
2022/09/05 01:54:58;;;;;;;;;;;;;;;18.73;100.00;101880.38;4959334;28;19930;-62
2022/09/05 01:57:28;;;;;;;;;;;;;;;18.76;100.00;101877.38;4952820;28;19965;-62
2022/09/05 01:59:58;;;;;;;;;;;;;;;18.80;100.00;101874.38;4960829;28;19934;-61
2022/09/05 02:02:37;;;;;;;;;;;;;;;18.77;100.00;101876.34;4939692;28;19931;-62
2022/09/05 02:05:24;;;;;;;;;;;;;;;18.76;100.00;101866.75;4946231;28;19930;-62
2022/09/05 02:08:10;;;;;;;;;;;;;;;18.79;100.00;101873.53;4940574;28;19937;-62
2022/09/05 02:10:48;;;;;;;;;;;;;;;18.81;100.00;101873.38;4948370;28;19926;-62
2022/09/05 02:13:15;;;;;;;;;;;;;;;18.85;100.00;101874.69;4947754;28;19927;-62
2022/09/05 02:15:46;;;;;;;;;;;;;;;18.87;100.00;101873.50;4950410;28;20411;-62
2022/09/05 02:18:36;;;;;;;;;;;;;;;18.86;100.00;101866.56;4949461;28;20371;-62
2022/09/05 02:21:07;;;;;;;;;;;;;;;18.87;100.00;101872.69;4954600;28;20404;-62
2022/09/05 02:23:43;;;;;;;;;;;;;;;18.87;100.00;101875.34;4962932;28;19930;-60
2022/09/05 02:26:25;;;;;;;;;;;;;;;18.86;100.00;101877.19;4943740;28;19933;-62
2022/09/05 02:28:54;;;;;;;;;;;;;;;18.88;100.00;101880.50;4947993;28;20151;-61
2022/09/05 02:31:24;;;;;;;;;;;;;;;18.85;100.00;101886.16;4936084;28;19934;-61
2022/09/05 02:34:13;;;;;;;;;;;;;;;18.86;100.00;101876.38;4947608;28;19926;-62
2022/09/05 02:36:58;;;;;;;;;;;;;;;18.85;100.00;101880.00;4947288;28;19926;-62
2022/09/05 02:39:34;;;;;;;;;;;;;;;18.83;100.00;101877.53;4947778;28;19937;-64
2022/09/05 02:42:23;;;;;;;;;;;;;;;18.85;100.00;101880.00;4946068;28;19931;-62
2022/09/05 02:45:21;;;;;;;;;;;;;;;18.87;100.00;101876.16;4950442;28;19930;-62
2022/09/05 02:48:14;;;;;;;;;;;;;;;18.89;100.00;101873.34;4941641;28;20025;-62
2022/09/05 02:50:56;;;;;;;;;;;;;;;18.88;100.00;101877.84;4960191;28;19926;-62
2022/09/05 02:53:47;;;;;;;;;;;;;;;18.88;100.00;101882.31;4951874;28;19931;-62
2022/09/05 02:56:48;;;;;;;;;;;;;;;18.85;100.00;101887.97;4955405;28;20382;-62
2022/09/05 02:59:34;;;;;;;;;;;;;;;18.80;100.00;101875.22;4944213;28;19961;-62
2022/09/05 03:02:11;;;;;;;;;;;;;;;18.77;100.00;101879.00;4956241;28;19970;-61
2022/09/05 03:05:01;;;;;;;;;;;;;;;18.70;100.00;101875.41;4948084;28;19954;-62
2022/09/05 03:07:30;;;;;;;;;;;;;;;18.66;100.00;101882.09;4949498;28;19938;-63
2022/09/05 03:10:15;;;;;;;;;;;;;;;18.64;100.00;101881.44;4952662;28;19926;-62
2022/09/05 03:13:00;;;;;;;;;;;;;;;18.61;100.00;101881.75;4958099;28;20391;-62
2022/09/05 03:15:26;;;;;;;;;;;;;;;18.60;100.00;101876.63;4951211;28;19926;-62
2022/09/05 03:18:06;;;;;;;;;;;;;;;18.54;100.00;101876.34;4958605;28;19935;-62
2022/09/05 03:21:12;;;;;;;;;;;;;;;18.49;100.00;101878.66;4953164;28;19945;-62
2022/09/05 03:23:44;;;;;;;;;;;;;;;18.49;100.00;101870.69;4943108;28;19930;-61
2022/09/05 03:26:14;;;;;;;;;;;;;;;18.43;100.00;101878.53;4961053;28;19930;-62
2022/09/05 03:29:03;;;;;;;;;;;;;;;18.41;100.00;101870.75;4943938;28;20013;-62
2022/09/05 03:31:55;;;;;;;;;;;;;;;18.39;100.00;101878.06;4957270;28;19977;-62
2022/09/05 03:34:52;;;;;;;;;;;;;;;18.36;100.00;101884.50;4952976;28;19927;-61
2022/09/05 03:37:18;;;;;;;;;;;;;;;18.33;100.00;101882.22;4954621;28;19930;-62
2022/09/05 03:39:57;;;;;;;;;;;;;;;18.34;100.00;101883.88;4951203;28;19926;-62
2022/09/05 03:42:59;;;;;;;;;;;;;;;18.28;100.00;101889.88;4956570;28;19926;-62
2022/09/05 03:45:43;;;;;;;;;;;;;;;18.28;100.00;101883.72;4946580;28;19927;-62
2022/09/05 03:48:18;;;;;;;;;;;;;;;18.30;100.00;101892.34;4958218;28;20399;-62
2022/09/05 03:50:58;;;;;;;;;;;;;;;18.30;100.00;101885.22;4943888;28;19997;-62
2022/09/05 03:53:57;;;;;;;;;;;;;;;18.31;100.00;101892.19;4959270;28;19926;-62
2022/09/05 03:56:55;;;;;;;;;;;;;;;18.33;100.00;101892.03;4946369;28;20480;-62
2022/09/05 03:59:48;;;;;;;;;;;;;;;18.31;100.00;101888.72;4957850;28;19934;-62
2022/09/05 04:02:18;;;;;;;;;;;;;;;18.30;100.00;101889.69;4953758;28;20288;-62
2022/09/05 04:05:12;;;;;;;;;;;;;;;18.32;100.00;101891.19;4952503;28;19934;-63
2022/09/05 04:08:17;;;;;;;;;;;;;;;18.31;100.00;101886.88;4937474;28;19931;-61
2022/09/05 04:11:05;;;;;;;;;;;;;;;18.29;100.00;101886.22;4953680;28;19926;-61
2022/09/05 04:13:34;;;;;;;;;;;;;;;18.29;100.00;101891.53;4949009;28;19970;-62
2022/09/05 04:16:08;;;;;;;;;;;;;;;18.30;100.00;101892.34;4952110;28;19930;-62
2022/09/05 04:18:40;;;;;;;;;;;;;;;18.27;100.00;101888.22;4949851;28;19937;-62
2022/09/05 04:21:09;;;;;;;;;;;;;;;18.26;100.00;101888.38;4943595;28;19938;-63
2022/09/05 04:23:50;;;;;;;;;;;;;;;18.26;100.00;101888.38;4949732;28;19941;-62
2022/09/05 04:26:21;;;;;;;;;;;;;;;18.25;100.00;101897.34;4947835;28;19926;-62
2022/09/05 04:28:47;;;;;;;;;;;;;;;18.21;100.00;101894.22;4953996;28;19937;-62
2022/09/05 04:31:39;;;;;;;;;;;;;;;18.20;100.00;101889.06;4952031;28;19934;-62
2022/09/05 04:34:05;;;;;;;;;;;;;;;18.14;100.00;101891.41;4943223;28;19985;-62
2022/09/05 04:36:33;;;;;;;;;;;;;;;18.12;100.00;101897.88;4940296;28;20399;-62
2022/09/05 04:39:17;;;;;;;;;;;;;;;18.11;100.00;101897.06;4956444;28;20478;-63
2022/09/05 04:41:49;;;;;;;;;;;;;;;18.08;100.00;101900.06;4945220;28;19938;-62
2022/09/05 04:44:26;;;;;;;;;;;;;;;18.04;100.00;101904.03;4948176;28;19927;-61
2022/09/05 04:47:11;;;;;;;;;;;;;;;18.02;100.00;101905.22;4950314;28;20426;-62
2022/09/05 04:49:43;;;;;;;;;;;;;;;17.99;100.00;101903.72;4941127;28;20390;-62
2022/09/05 04:52:30;;;;;;;;;;;;;;;17.95;100.00;101905.06;4953844;28;19930;-61
2022/09/05 04:55:06;;;;;;;;;;;;;;;17.88;100.00;101907.56;4950929;28;19927;-63
2022/09/05 04:57:50;;;;;;;;;;;;;;;17.86;100.00;101912.22;4964371;28;19956;-62
2022/09/05 05:00:33;;;;;;;;;;;;;;;17.83;100.00;101911.69;4955727;28;19930;-62
2022/09/05 05:03:25;;;;;;;;;;;;;;;17.78;100.00;101912.19;4940437;28;20556;-62
2022/09/05 05:06:20;;;;;;;;;;;;;;;17.75;100.00;101916.00;4943255;28;19926;-62
2022/09/05 05:09:21;;;;;;;;;;;;;;;17.73;100.00;101915.31;4950404;28;19930;-61
2022/09/05 05:11:57;;;;;;;;;;;;;;;17.71;100.00;101913.84;4946391;28;19933;-61
2022/09/05 05:14:56;;;;;;;;;;;;;;;17.71;100.00;101919.97;4944821;28;19938;-62
2022/09/05 05:18:00;;;;;;;;;;;;;;;17.73;100.00;101917.97;4940419;28;19934;-61
2022/09/05 05:20:52;;;;;;;;;;;;;;;17.70;100.00;101918.34;4947587;28;19930;-62
2022/09/05 05:23:27;;;;;;;;;;;;;;;17.68;100.00;101917.66;4941819;28;19930;-63
2022/09/05 05:25:55;;;;;;;;;;;;;;;17.65;100.00;101915.34;4952031;28;19930;-62
2022/09/05 05:28:27;;;;;;;;;;;;;;;17.65;100.00;101918.00;4945317;28;20363;-62
2022/09/05 05:30:55;;;;;;;;;;;;;;;17.69;100.00;101923.81;4944765;28;19937;-62
2022/09/05 05:33:30;;;;;;;;;;;;;;;17.72;100.00;101929.59;4941480;28;20537;-62
2022/09/05 05:35:58;;;;;;;;;;;;;;;17.73;100.00;101920.63;4948384;28;20290;-62
2022/09/05 05:38:42;;;;;;;;;;;;;;;17.74;100.00;101922.31;4947875;28;20389;-62
2022/09/05 05:41:34;;;;;;;;;;;;;;;17.77;100.00;101914.00;4951812;28;19930;-61
2022/09/05 05:44:08;;;;;;;;;;;;;;;17.79;100.00;101912.00;4932625;28;19938;-61
2022/09/05 05:46:38;;;;;;;;;;;;;;;17.83;100.00;101917.00;4944039;28;19930;-62
2022/09/05 05:49:23;;;;;;;;;;;;;;;17.86;100.00;101919.34;4947626;28;20311;-62
2022/09/05 05:52:04;;;;;;;;;;;;;;;17.89;100.00;101921.66;4949338;28;20470;-62
2022/09/05 05:54:44;;;;;;;;;;;;;;;17.92;100.00;101922.16;4958635;28;19932;-62
2022/09/05 05:57:21;;;;;;;;;;;;;;;17.95;100.00;101921.84;4941022;28;19926;-62
2022/09/05 06:00:00;;;;;;;;;;;;;;;17.98;100.00;101916.16;4945981;28;19926;-62
2022/09/05 06:02:45;;;;;;;;;;;;;;;18.02;100.00;101932.59;4941443;28;19926;-62
2022/09/05 06:05:45;;;;;;;;;;;;;;;18.07;100.00;101924.97;4950887;28;20021;-62
2022/09/05 06:08:23;;;;;;;;;;;;;;;18.12;100.00;101927.91;4934332;28;19938;-62
2022/09/05 06:11:11;;;;;;;;;;;;;;;18.16;100.00;101931.88;4944887;28;19930;-62
2022/09/05 06:14:16;;;;;;;;;;;;;;;18.23;100.00;101933.84;4938846;28;19931;-61
2022/09/05 06:17:03;;;;;;;;;;;;;;;18.30;100.00;101926.88;4952143;28;19958;-62
2022/09/05 06:19:39;;;;;;;;;;;;;;;18.34;100.00;101922.88;4944285;28;19931;-62
2022/09/05 06:22:41;;;;;;;;;;;;;;;18.38;100.00;101924.19;4950759;28;19930;-62
2022/09/05 06:25:26;;;;;;;;;;;;;;;18.44;100.00;101928.00;4941701;28;19934;-62
2022/09/05 06:27:55;;;;;;;;;;;;;;;18.52;100.00;101935.94;4947780;28;19938;-60
2022/09/05 06:30:46;;;;;;;;;;;;;;;18.58;100.00;101936.09;4944953;28;19937;-62
2022/09/05 06:33:28;;;;;;;;;;;;;;;18.66;100.00;101945.00;4963960;28;20024;-61
2022/09/05 06:36:10;;;;;;;;;;;;;;;18.72;100.00;101939.84;4950382;28;19931;-62
2022/09/05 06:38:41;;;;;;;;;;;;;;;18.79;100.00;101945.28;4952603;28;19935;-64
2022/09/05 06:41:26;;;;;;;;;;;;;;;18.84;100.00;101944.81;4939605;28;20021;-62
2022/09/05 06:44:12;;;;;;;;;;;;;;;18.93;100.00;101941.09;4954409;28;19933;-62
2022/09/05 06:46:42;;;;;;;;;;;;;;;19.01;100.00;101948.19;4952703;28;19981;-62
2022/09/05 06:49:38;;;;;;;;;;;;;;;19.05;100.00;101942.38;4951749;28;19930;-62
2022/09/05 06:52:29;;;;;;;;;;;;;;;19.10;100.00;101949.81;4949610;28;19930;-62
2022/09/05 06:54:55;;;;;;;;;;;;;;;19.14;100.00;101946.63;4958286;28;19952;-62
2022/09/05 06:57:46;;;;;;;;;;;;;;;19.20;100.00;101950.41;4961804;28;20021;-62
2022/09/05 07:00:22;;;;;;;;;;;;;;;19.27;100.00;101948.72;4951063;28;19937;-63
2022/09/05 07:03:17;;;;;;;;;;;;;;;19.34;100.00;101947.00;4959946;28;20025;-62
2022/09/05 07:05:53;;;;;;;;;;;;;;;19.41;100.00;101948.97;4951643;28;19931;-62
2022/09/05 07:08:43;;;;;;;;;;;;;;;19.55;100.00;101956.16;4950459;28;19926;-62
2022/09/05 07:11:13;;;;;;;;;;;;;;;19.64;100.00;101960.44;4948577;28;19931;-62
2022/09/05 07:13:51;;;;;;;;;;;;;;;19.72;100.00;101959.56;4951437;28;19957;-62
2022/09/05 07:16:21;;;;;;;;;;;;;;;19.79;100.00;101962.34;4945819;28;19926;-62
2022/09/05 07:19:11;;;;;;;;;;;;;;;19.91;100.00;101959.03;4957342;28;19931;-61
2022/09/05 07:21:42;;;;;;;;;;;;;;;19.98;100.00;101961.81;4944609;28;19927;-62
2022/09/05 07:24:17;;;;;;;;;;;;;;;20.03;100.00;101953.28;4958088;28;19926;-62
2022/09/05 07:27:05;;;;;;;;;;;;;;;20.12;100.00;101960.19;4945266;28;20508;-62
2022/09/05 07:29:38;;;;;;;;;;;;;;;20.22;100.00;101960.75;4950467;28;20462;-62
2022/09/05 07:32:17;;;;;;;;;;;;;;;20.39;100.00;101968.56;4946400;28;19938;-62
2022/09/05 07:34:50;;;;;;;;;;;;;;;20.44;100.00;101963.50;4947425;28;19930;-62
2022/09/05 07:37:26;;;;;;;;;;;;;;;20.46;100.00;101962.31;4950954;28;20398;-62
2022/09/05 07:39:55;;;;;;;;;;;;;;;20.51;100.00;101954.59;4953283;28;19926;-63
2022/09/05 07:42:25;;;;;;;;;;;;;;;20.60;100.00;101955.38;4956284;28;19961;-62
2022/09/05 07:44:56;;;;;;;;;;;;;;;20.67;100.00;101956.25;4954973;28;19937;-62
2022/09/05 07:47:26;;;;;;;;;;;;;;;20.77;100.00;101953.31;4951988;28;19930;-62
2022/09/05 07:49:54;;;;;;;;;;;;;;;20.86;100.00;101951.38;4938946;28;19930;-62
2022/09/05 07:52:43;;;;;;;;;;;;;;;20.93;100.00;101953.09;4967653;28;19933;-62
2022/09/05 07:55:30;;;;;;;;;;;;;;;21.03;100.00;101954.63;4951235;28;20136;-63
2022/09/05 07:58:20;;;;;;;;;;;;;;;21.10;100.00;101958.22;4952747;28;19946;-62
2022/09/05 08:00:50;;;;;;;;;;;;;;;21.20;100.00;101964.06;4961638;28;19930;-62
2022/09/05 08:03:21;;;;;;;;;;;;;;;21.28;100.00;101965.78;4946772;28;19934;-62
2022/09/05 08:05:52;;;;;;;;;;;;;;;21.37;100.00;101964.66;4961126;28;20556;-63
2022/09/05 08:08:21;;;;;;;;;;;;;;;21.47;100.00;101959.84;4945139;28;19937;-61
2022/09/05 08:10:51;;;;;;;;;;;;;;;21.57;100.00;101958.72;4950289;28;19958;-62
2022/09/05 08:13:47;;;;;;;;;;;;;;;21.67;100.00;101954.69;4942037;28;19930;-63
2022/09/05 08:16:15;;;;;;;;;;;;;;;21.87;100.00;101964.69;4953961;28;19973;-63
2022/09/05 08:18:51;;;;;;;;;;;;;;;21.97;100.00;101959.00;4942832;28;19949;-62
2022/09/05 08:21:22;;;;;;;;;;;;;;;22.16;100.00;101957.50;4952145;28;20025;-63
2022/09/05 08:24:10;;;;;;;;;;;;;;;22.37;99.56;101960.13;4958913;28;20036;-63
2022/09/05 08:26:44;;;;;;;;;;;;;;;22.64;98.93;101947.72;4954151;28;19985;-63
2022/09/05 08:29:29;;;;;;;;;;;;;;;22.94;93.13;101959.97;4940095;28;19934;-63
2022/09/05 08:32:08;;;;;;;;;;;;;;;23.22;91.17;101954.50;4958579;28;20491;-63
2022/09/05 08:34:41;;;;;;;;;;;;;;;23.42;90.76;101960.75;4951235;28;19931;-63
2022/09/05 08:37:13;;;;;;;;;;;;;;;23.73;87.46;101961.16;4956458;28;19930;-62
2022/09/05 08:39:49;;;;;;;;;;;;;;;23.99;85.47;101960.31;4953982;28;19941;-63
2022/09/05 08:42:47;;;;;;;;;;;;;;;24.22;83.76;101957.19;4944795;28;19927;-63
2022/09/05 08:45:37;;;;;;;;;;;;;;;24.52;81.62;101960.25;4944662;28;19931;-63
2022/09/05 08:48:38;;;;;;;;;;;;;;;24.79;80.85;101965.50;4946653;28;19931;-63
2022/09/05 08:51:21;;;;;;;;;;;;;;;24.99;79.32;101954.66;4952773;28;20695;-64
2022/09/05 08:53:51;;;;;;;;;;;;;;;25.23;77.48;101950.44;4955695;28;20405;-63
2022/09/05 08:56:22;;;;;;;;;;;;;;;25.44;76.14;101951.91;4957552;28;19930;-64
2022/09/05 08:58:57;;;;;;;;;;;;;;;25.57;77.16;101951.00;4933286;28;19931;-62
2022/09/05 09:02:02;;;;;;;;;;;;;;;25.71;71.78;101946.31;4956238;28;20310;-62
2022/09/05 09:05:08;;;;;;;;;;;;;;;25.95;70.82;101942.84;4944976;28;19938;-63
2022/09/05 09:07:42;;;;;;;;;;;;;;;26.20;69.04;101941.94;4954829;28;20335;-63
2022/09/05 09:10:20;;;;;;;;;;;;;;;26.36;69.03;101945.91;4941321;28;19931;-64
2022/09/05 09:13:10;;;;;;;;;;;;;;;26.58;69.79;101940.88;4954049;28;19930;-63
2022/09/05 09:15:52;;;;;;;;;;;;;;;26.74;65.84;101934.09;4946391;28;19940;-63
2022/09/05 09:18:20;;;;;;;;;;;;;;;26.89;65.13;101939.88;4959063;28;19930;-63
2022/09/05 09:20:47;;;;;;;;;;;;;;;27.06;64.33;101937.34;4949499;28;19931;-63
2022/09/05 09:23:22;;;;;;;;;;;;;;;27.17;61.69;101931.19;4956388;28;20358;-63
2022/09/05 09:26:21;;;;;;;;;;;;;;;27.38;61.50;101932.56;4948569;28;19931;-63
2022/09/05 09:29:02;;;;;;;;;;;;;;;27.57;62.18;101930.56;4950112;28;20490;-63
2022/09/05 09:31:35;;;;;;;;;;;;;;;27.73;61.98;101923.66;4945603;28;19933;-63
2022/09/05 09:34:21;;;;;;;;;;;;;;;27.87;59.64;101928.81;4955991;28;19930;-62
2022/09/05 09:36:58;;;;;;;;;;;;;;;28.12;60.02;101925.88;4957563;28;19952;-63
2022/09/05 09:39:43;;;;;;;;;;;;;;;28.28;59.46;101922.44;4944871;28;20037;-64
2022/09/05 09:42:19;;;;;;;;;;;;;;;28.47;58.10;101917.69;4949911;28;20723;-63
2022/09/05 09:45:16;;;;;;;;;;;;;;;28.63;56.31;101909.94;4948128;28;19934;-63
2022/09/05 09:48:11;;;;;;;;;;;;;;;28.84;51.94;101908.44;4963374;28;20419;-64
2022/09/05 09:50:56;;;;;;;;;;;;;;;29.11;53.02;101912.13;4940856;28;19936;-63
2022/09/05 09:53:32;;;;;;;;;;;;;;;29.28;51.21;101905.94;4952677;28;19930;-63
2022/09/05 09:56:21;;;;;;;;;;;;;;;29.46;50.72;101902.16;4954464;28;20025;-61
2022/09/05 09:58:53;;;;;;;;;;;;;;;29.66;49.25;101898.94;4954367;28;20359;-63
2022/09/05 10:01:52;;;;;;;;;;;;;;;29.88;50.17;101896.31;4950538;28;19933;-64
2022/09/05 10:04:27;;;;;;;;;;;;;;;30.11;48.98;101898.78;4957950;28;19932;-63
2022/09/05 10:07:32;;;;;;;;;;;;;;;30.38;48.11;101895.31;4936572;28;19930;-63
2022/09/05 10:10:37;;;;;;;;;;;;;;;30.55;48.96;101887.91;4954898;28;19926;-63
2022/09/05 10:13:23;;;;;;;;;;;;;;;30.74;48.87;101882.97;4951169;28;19980;-63
2022/09/05 10:15:55;;;;;;;;;;;;;;;30.93;46.58;101878.03;4951161;28;20036;-63
2022/09/05 10:18:34;;;;;;;;;;;;;;;31.01;42.85;101884.03;4951443;28;19934;-63
2022/09/05 10:21:24;;;;;;;;;;;;;;;31.26;44.49;101881.53;4943744;28;19934;-63
2022/09/05 10:24:09;;;;;;;;;;;;;;;31.43;43.99;101880.56;4937032;28;20559;-64
2022/09/05 10:26:55;;;;;;;;;;;;;;;31.67;44.86;101876.38;4961476;28;19953;-65
2022/09/05 10:29:40;;;;;;;;;;;;;;;31.88;43.80;101876.50;4940391;28;20486;-64
2022/09/05 10:32:12;;;;;;;;;;;;;;;31.97;40.79;101874.06;4960426;28;19926;-63
2022/09/05 10:35:02;;;;;;;;;;;;;;;32.20;43.12;101870.94;4944235;28;19934;-64
2022/09/05 10:38:07;;;;;;;;;;;;;;;32.40;43.51;101858.50;4947163;28;20372;-64
2022/09/05 10:40:38;;;;;;;;;;;;;;;32.57;41.93;101852.84;4944774;28;19938;-64
2022/09/05 10:43:28;;;;;;;;;;;;;;;32.68;41.15;101849.06;4958380;28;19930;-64
2022/09/05 10:45:55;;;;;;;;;;;;;;;32.66;39.82;101848.53;4942827;28;19937;-63
2022/09/05 10:48:26;;;;;;;;;;;;;;;32.80;44.13;101846.91;4954222;28;19930;-65
2022/09/05 10:50:55;;;;;;;;;;;;;;;33.03;40.69;101848.25;4948486;28;20025;-64
2022/09/05 10:53:29;;;;;;;;;;;;;;;33.22;40.10;101850.41;4957746;28;19941;-64
2022/09/05 10:56:10;;;;;;;;;;;;;;;33.16;38.55;101843.34;4954002;28;20369;-65
2022/09/05 10:58:42;;;;;;;;;;;;;;;33.28;39.18;101843.88;4947616;28;19933;-63
2022/09/05 11:01:40;;;;;;;;;;;;;;;33.45;41.50;101840.84;4951644;28;19933;-65
2022/09/05 11:04:45;;;;;;;;;;;;;;;33.62;38.78;101837.81;4945110;28;19930;-63
2022/09/05 11:07:38;;;;;;;;;;;;;;;33.77;38.82;101834.22;4950676;28;19930;-64
2022/09/05 11:10:07;;;;;;;;;;;;;;;33.94;38.78;101829.25;4944077;28;20439;-64
2022/09/05 11:12:52;;;;;;;;;;;;;;;34.11;41.02;101828.91;4956353;28;20310;-64
2022/09/05 11:15:29;;;;;;;;;;;;;;;33.97;39.02;101828.72;4948016;28;20025;-64
2022/09/05 11:18:04;;;;;;;;;;;;;;;34.15;38.06;101832.72;4949678;28;19934;-65
2022/09/05 11:20:36;;;;;;;;;;;;;;;34.16;36.81;101833.53;4944127;28;19926;-64
2022/09/05 11:23:14;;;;;;;;;;;;;;;34.23;36.86;101832.13;4950044;28;19931;-64
2022/09/05 11:25:41;;;;;;;;;;;;;;;34.16;35.90;101834.31;4952136;28;19933;-64
2022/09/05 11:28:20;;;;;;;;;;;;;;;34.28;35.63;101831.25;4949853;28;20295;-64
2022/09/05 11:30:52;;;;;;;;;;;;;;;34.33;36.05;101825.78;4958324;28;20378;-64
2022/09/05 11:33:30;;;;;;;;;;;;;;;34.21;35.53;101828.06;4957678;28;19934;-64
2022/09/05 11:36:25;;;;;;;;;;;;;;;34.23;36.14;101821.22;4961528;28;20299;-63
2022/09/05 11:39:24;;;;;;;;;;;;;;;34.04;35.76;101814.78;4950942;28;19931;-64
2022/09/05 11:42:28;;;;;;;;;;;;;;;34.31;36.76;101814.38;4961241;28;19937;-63
2022/09/05 11:45:17;;;;;;;;;;;;;;;34.40;36.47;101818.13;4953578;28;20301;-64
2022/09/05 11:47:46;;;;;;;;;;;;;;;34.60;36.99;101821.78;4954800;28;19942;-63
2022/09/05 11:50:30;;;;;;;;;;;;;;;34.62;35.63;101814.94;4945952;28;19934;-63
2022/09/05 11:53:15;;;;;;;;;;;;;;;34.91;36.71;101816.06;4955072;28;19930;-63
2022/09/05 11:55:51;;;;;;;;;;;;;;;34.89;36.10;101810.91;4955837;28;19926;-63
2022/09/05 11:58:28;;;;;;;;;;;;;;;35.03;35.65;101805.63;4963868;28;20462;-64
2022/09/05 12:01:16;;;;;;;;;;;;;;;35.23;37.13;101802.69;4944525;28;20762;-64
2022/09/05 12:04:18;;;;;;;;;;;;;;;35.35;35.76;101796.81;4951407;28;19930;-63
2022/09/05 12:07:02;;;;;;;;;;;;;;;35.54;38.13;101804.22;4938855;28;19937;-63
2022/09/05 12:10:01;;;;;;;;;;;;;;;35.63;33.85;101800.56;4954580;28;19937;-63
2022/09/05 12:12:36;;;;;;;;;;;;;;;35.57;34.20;101798.19;4946577;28;19963;-63
2022/09/05 12:15:08;;;;;;;;;;;;;;;35.29;33.60;101806.16;4952675;28;20017;-63
2022/09/05 12:17:55;;;;;;;;;;;;;;;35.12;33.29;101795.69;4942972;28;19930;-63
2022/09/05 12:20:27;;;;;;;;;;;;;;;35.40;34.01;101793.22;4947812;28;19933;-63
2022/09/05 12:23:20;;;;;;;;;;;;;;;35.53;35.93;101794.44;4952692;28;20022;-64
2022/09/05 12:26:12;;;;;;;;;;;;;;;35.80;36.66;101799.28;4957599;28;20183;-63
2022/09/05 12:29:02;;;;;;;;;;;;;;;35.84;34.43;101790.22;4947786;28;19968;-64
2022/09/05 12:31:59;;;;;;;;;;;;;;;36.01;35.08;101786.19;4960440;28;19937;-63
2022/09/05 12:34:51;;;;;;;;;;;;;;;36.17;33.78;101792.25;4942679;28;19934;-63
2022/09/05 12:37:39;;;;;;;;;;;;;;;35.96;33.33;101791.69;4958450;28;20405;-64
2022/09/05 12:40:36;;;;;;;;;;;;;;;36.15;33.42;101789.78;4942794;28;19927;-64
2022/09/05 12:43:25;;;;;;;;;;;;;;;36.25;33.79;101786.09;4950951;28;19926;-63
2022/09/05 12:46:22;;;;;;;;;;;;;;;36.43;33.22;101781.72;4942204;28;19930;-63
2022/09/05 12:49:01;;;;;;;;;;;;;;;36.44;33.02;101786.03;4949382;28;19957;-63
2022/09/05 12:51:36;;;;;;;;;;;;;;;36.47;33.32;101782.72;4957575;28;20614;-64
2022/09/05 12:54:26;;;;;;;;;;;;;;;36.48;33.82;101778.91;4959519;28;19958;-64
2022/09/05 12:57:25;;;;;;;;;;;;;;;36.56;33.73;101769.22;4953621;28;19937;-64
2022/09/05 13:00:14;;;;;;;;;;;;;;;36.69;32.85;101775.81;4960083;28;19938;-64
2022/09/05 13:03:02;;;;;;;;;;;;;;;36.53;32.09;101767.88;4946368;28;19930;-64
2022/09/05 13:05:52;;;;;;;;;;;;;;;36.57;33.24;101776.28;4958877;28;19926;-64
2022/09/05 13:08:22;;;;;;;;;;;;;;;36.65;34.88;101777.53;4949504;28;19958;-63
2022/09/05 13:10:51;;;;;;;;;;;;;;;36.72;35.60;101773.31;4956932;28;19938;-64
2022/09/05 13:13:46;;;;;;;;;;;;;;;36.90;33.48;101763.41;4944695;28;20331;-64
2022/09/05 13:16:34;;;;;;;;;;;;;;;37.06;32.65;101769.38;4946509;28;19964;-64
2022/09/05 13:19:06;;;;;;;;;;;;;;;37.07;31.81;101764.72;4949659;28;19930;-65
2022/09/05 13:21:44;;;;;;;;;;;;;;;37.15;31.68;101759.41;4944596;28;19926;-64
2022/09/05 13:24:13;;;;;;;;;;;;;;;36.77;30.61;101756.81;4956730;28;19981;-64
2022/09/05 13:26:58;;;;;;;;;;;;;;;36.73;32.33;101760.44;4938143;28;19937;-64
2022/09/05 13:29:31;;;;;;;;;;;;;;;36.31;33.32;101759.53;4954234;28;19936;-64
2022/09/05 13:32:37;;;;;;;;;;;;;;;36.15;32.48;101756.19;4947319;28;19926;-64
2022/09/05 13:35:35;;;;;;;;;;;;;;;35.92;32.44;101755.19;4953149;28;20293;-64
2022/09/05 13:38:27;;;;;;;;;;;;;;;35.53;33.07;101748.06;4959547;28;19926;-64
2022/09/05 13:41:16;;;;;;;;;;;;;;;35.58;33.22;101742.53;4946050;28;19933;-64
2022/09/05 13:43:55;;;;;;;;;;;;;;;35.55;32.91;101738.47;4938092;28;19977;-63
2022/09/05 13:46:52;;;;;;;;;;;;;;;35.74;33.41;101737.72;4961940;28;19934;-63